Terminal Aerodrome Forecast
Issued by NWS Amarillo, TX

Home | Current Version | Previous Version | Text Only | Print | Product List | Glossary On
Versions: 1 2 3 4 5 6 7 8 9 10 11 12 13 14 15
930
FTUS44 KAMA 211459 AAA
TAFDHT
TAF AMD
KDHT 211459Z 2115/2212 03010KT P6SM SCT010 BKN100
     FM211800 25025G35KT P6SM SCT200
     FM212200 32032G42KT P6SM OVC080
     FM220400 31022G32KT P6SM SCT100=

USA.gov is the U.S. government's official web portal to all federal, state and local government web resources and services.